createdAt,value
2022-11-14T00:00:35.578Z,42.37
2022-11-14T00:03:22.741Z,34.27
2022-11-14T00:06:10.772Z,28.87
2022-11-14T00:09:02.169Z,29.73
2022-11-14T00:11:49.349Z,30.80
2022-11-14T00:14:35.795Z,27.73
2022-11-14T00:17:23.013Z,25.00
2022-11-14T00:20:14.770Z,25.80
2022-11-14T00:23:01.757Z,23.83
2022-11-14T00:25:50.560Z,23.77
2022-11-14T00:28:37.777Z,24.33
2022-11-14T00:31:25.703Z,25.57
2022-11-14T00:34:12.259Z,24.17
2022-11-14T00:36:58.732Z,22.37
2022-11-14T00:39:48.781Z,22.97
2022-11-14T00:42:36.688Z,23.47
2022-11-14T00:45:24.411Z,33.23
2022-11-14T00:48:14.763Z,28.10
2022-11-14T00:51:01.783Z,22.73
2022-11-14T00:53:48.873Z,22.80
2022-11-14T00:56:35.541Z,21.70
2022-11-14T00:59:23.817Z,20.73
2022-11-14T01:02:11.652Z,21.80
2022-11-14T01:04:58.822Z,21.93
2022-11-14T01:07:45.076Z,22.07
2022-11-14T01:10:31.838Z,19.37
2022-11-14T01:13:19.617Z,18.43
2022-11-14T01:16:10.207Z,18.20
2022-11-14T01:18:56.851Z,21.07
2022-11-14T01:21:43.778Z,21.27
2022-11-14T01:24:33.829Z,18.87
2022-11-14T01:27:20.308Z,20.07
2022-11-14T01:30:08.817Z,17.17
2022-11-14T01:32:59.533Z,18.23
2022-11-14T01:35:45.896Z,19.57
2022-11-14T01:38:32.961Z,17.57
2022-11-14T01:41:20.780Z,16.73
2022-11-14T01:44:15.102Z,18.53
2022-11-14T01:47:02.414Z,17.20
2022-11-14T01:49:54.842Z,16.47
2022-11-14T01:52:42.276Z,16.87
2022-11-14T01:55:33.639Z,16.43
2022-11-14T01:58:20.393Z,16.60
2022-11-14T02:01:06.794Z,15.87
2022-11-14T02:03:55.850Z,18.70
2022-11-14T02:06:44.790Z,16.40
2022-11-14T02:09:39.461Z,20.07
2022-11-14T02:12:26.368Z,17.13
2022-11-14T02:15:14.834Z,18.73
2022-11-14T02:18:04.938Z,19.23
2022-11-14T02:20:53.784Z,18.23
2022-11-14T02:23:40.886Z,19.83
2022-11-14T02:26:36.530Z,18.43
2022-11-14T02:29:27.410Z,19.20
2022-11-14T02:32:14.703Z,19.40
2022-11-14T02:35:01.248Z,17.10
2022-11-14T02:37:49.719Z,19.03
2022-11-14T02:40:36.826Z,21.07
2022-11-14T02:43:24.445Z,17.00
2022-11-14T02:46:12.372Z,16.17
2022-11-14T02:48:58.865Z,14.03
2022-11-14T02:51:48.841Z,15.40
2022-11-14T02:54:38.013Z,12.80
2022-11-14T02:57:24.513Z,13.60
2022-11-14T03:00:15.589Z,15.17
2022-11-14T03:03:02.821Z,14.30
2022-11-14T03:05:49.709Z,14.00
2022-11-14T03:08:36.834Z,17.03
2022-11-14T03:11:24.837Z,16.30
2022-11-14T03:14:11.765Z,14.60
2022-11-14T03:16:58.758Z,15.47
2022-11-14T03:19:45.817Z,16.90
2022-11-14T03:22:32.888Z,17.00
2022-11-14T03:25:19.833Z,15.77
2022-11-14T03:28:07.891Z,16.43
2022-11-14T03:30:54.842Z,18.07
2022-11-14T03:33:41.776Z,17.13
2022-11-14T03:36:28.159Z,15.70
2022-11-14T03:39:15.904Z,17.67
2022-11-14T03:42:02.784Z,19.00
2022-11-14T03:44:50.908Z,17.17
2022-11-14T03:47:37.971Z,15.70
2022-11-14T03:50:24.365Z,18.63
2022-11-14T03:53:11.920Z,18.00
2022-11-14T03:55:59.379Z,16.47
2022-11-14T03:58:46.909Z,17.87
2022-11-14T04:01:34.818Z,16.17
2022-11-14T04:04:25.879Z,15.67
2022-11-14T04:07:12.339Z,16.13
2022-11-14T04:09:59.912Z,15.03
2022-11-14T04:12:51.066Z,17.03
2022-11-14T04:15:37.871Z,15.10
2022-11-14T04:18:27.070Z,15.73
2022-11-14T04:21:16.766Z,16.13
2022-11-14T04:24:10.799Z,14.53
2022-11-14T04:26:57.741Z,14.07
2022-11-14T04:29:45.480Z,16.33
2022-11-14T04:32:32.872Z,15.20
2022-11-14T04:35:23.323Z,14.43
2022-11-14T04:38:11.866Z,14.20
2022-11-14T04:40:58.867Z,14.20
2022-11-14T04:43:50.611Z,15.03
2022-11-14T04:46:37.488Z,16.27
2022-11-14T04:49:25.885Z,15.07
2022-11-14T04:52:17.006Z,16.97
2022-11-14T04:55:04.765Z,17.40
2022-11-14T04:57:56.326Z,17.07
2022-11-14T05:00:43.056Z,16.70
2022-11-14T05:03:30.975Z,15.63
2022-11-14T05:06:17.634Z,16.30
2022-11-14T05:09:09.863Z,15.73
2022-11-14T05:11:56.422Z,17.43
2022-11-14T05:14:43.914Z,17.90
2022-11-14T05:17:30.965Z,15.83
2022-11-14T05:20:17.510Z,16.30
2022-11-14T05:23:05.446Z,13.23
2022-11-14T05:26:01.825Z,14.00
2022-11-14T05:28:48.970Z,13.07
2022-11-14T05:31:36.804Z,14.03
2022-11-14T05:34:23.281Z,15.80
2022-11-14T05:37:09.506Z,15.23
2022-11-14T05:39:56.563Z,13.13
2022-11-14T05:42:44.247Z,15.03
2022-11-14T05:45:31.926Z,18.43
2022-11-14T05:48:18.880Z,15.83
2022-11-14T05:51:07.854Z,15.90
2022-11-14T05:53:55.460Z,16.40
2022-11-14T05:56:41.880Z,17.83
2022-11-14T05:59:29.918Z,14.07
2022-11-14T06:02:16.339Z,17.70
2022-11-14T06:05:03.340Z,17.33
2022-11-14T06:07:58.577Z,17.33
2022-11-14T06:10:45.908Z,14.40
2022-11-14T06:13:33.926Z,15.40
2022-11-14T06:16:21.734Z,16.93
2022-11-14T06:19:08.941Z,18.27
2022-11-14T06:21:55.761Z,16.53
2022-11-14T06:24:42.943Z,15.60
2022-11-14T06:27:29.814Z,13.97
2022-11-14T06:30:18.111Z,11.80
2022-11-14T06:33:06.331Z,11.10
2022-11-14T06:35:57.980Z,12.80
2022-11-14T06:38:47.314Z,12.23
2022-11-14T06:41:33.870Z,11.17
2022-11-14T06:44:21.755Z,12.50
2022-11-14T06:47:12.993Z,12.57
2022-11-14T06:50:00.873Z,15.40
2022-11-14T06:52:47.868Z,15.53
2022-11-14T06:55:34.507Z,13.27
2022-11-14T06:58:28.206Z,14.47
2022-11-14T07:01:17.235Z,12.53
2022-11-14T07:04:05.975Z,12.70
2022-11-14T07:06:54.210Z,11.00
2022-11-14T07:09:41.169Z,11.37
2022-11-14T07:12:32.785Z,9.80
2022-11-14T07:15:19.475Z,12.77
2022-11-14T07:18:06.557Z,12.50
2022-11-14T07:20:59.033Z,10.70
2022-11-14T07:23:46.932Z,10.07
2022-11-14T07:26:33.380Z,11.83
2022-11-14T07:29:23.476Z,10.73
2022-11-14T07:32:09.963Z,11.37
2022-11-14T07:35:01.907Z,12.37
2022-11-14T07:37:52.251Z,10.87
2022-11-14T07:40:41.018Z,19.93
2022-11-14T07:43:28.942Z,11.17
2022-11-14T07:46:17.961Z,8.37
2022-11-14T07:49:04.923Z,12.60
2022-11-14T07:51:51.965Z,9.07
2022-11-14T07:54:39.477Z,9.13
2022-11-14T07:57:27.861Z,9.03
2022-11-14T08:00:17.025Z,8.50
2022-11-14T08:03:07.654Z,12.43
2022-11-14T08:06:04.135Z,8.73
2022-11-14T08:08:50.989Z,10.87
2022-11-14T08:11:49.076Z,7.77
2022-11-14T08:14:43.975Z,9.50
2022-11-14T08:17:30.996Z,7.73
2022-11-14T08:20:17.664Z,7.17
2022-11-14T08:23:07.074Z,8.57
2022-11-14T08:25:54.628Z,7.33
2022-11-14T08:28:41.052Z,7.43
2022-11-14T08:31:29.855Z,9.73
2022-11-14T08:34:16.981Z,9.23
2022-11-14T08:37:04.894Z,9.17
2022-11-14T08:39:52.050Z,8.63
2022-11-14T08:42:39.018Z,9.33
2022-11-14T08:45:32.607Z,12.03
2022-11-14T08:48:20.987Z,10.67
2022-11-14T08:51:08.493Z,7.53
2022-11-14T08:53:56.045Z,7.53
2022-11-14T08:56:42.267Z,8.70
2022-11-14T08:59:29.685Z,9.17
2022-11-14T09:02:20.989Z,9.23
2022-11-14T09:05:11.914Z,8.20
2022-11-14T09:08:01.083Z,7.30
2022-11-14T09:10:48.006Z,6.47
2022-11-14T09:13:35.092Z,7.13
2022-11-14T09:16:21.743Z,8.13
2022-11-14T09:19:12.198Z,8.53
2022-11-14T09:22:04.988Z,8.13
2022-11-14T09:24:52.135Z,7.23
2022-11-14T09:27:39.005Z,5.77
2022-11-14T09:30:26.007Z,5.10
2022-11-14T09:33:14.457Z,6.57
2022-11-14T09:36:10.141Z,5.63
2022-11-14T09:39:01.535Z,5.27
2022-11-14T09:42:06.892Z,4.60
2022-11-14T09:44:58.839Z,4.93
2022-11-14T09:47:54.494Z,4.57
2022-11-14T09:54:07.932Z,9.77
2022-11-14T09:56:55.900Z,5.13
2022-11-14T09:59:44.506Z,7.20
2022-11-14T10:02:44.252Z,5.80
2022-11-14T10:05:53.935Z,7.87
2022-11-14T10:08:52.019Z,10.50
2022-11-14T10:11:43.923Z,8.83
2022-11-14T10:14:52.077Z,8.63
2022-11-14T10:17:53.929Z,7.87
2022-11-14T10:20:47.031Z,6.63
2022-11-14T10:23:42.036Z,6.77
2022-11-14T10:26:31.206Z,8.67
2022-11-14T10:29:38.829Z,9.80
2022-11-14T10:32:48.841Z,9.50
2022-11-14T10:35:41.553Z,11.47
2022-11-14T10:38:37.664Z,13.90
2022-11-14T10:41:55.148Z,12.63
2022-11-14T10:44:40.731Z,13.07
2022-11-14T10:47:37.303Z,12.23
2022-11-14T10:50:28.786Z,10.37
2022-11-14T10:53:22.561Z,10.97
2022-11-14T10:56:14.187Z,12.57
2022-11-14T10:59:01.036Z,11.00
2022-11-14T11:02:04.258Z,10.27
2022-11-14T11:04:50.542Z,10.03
2022-11-14T11:08:28.271Z,12.07
2022-11-14T11:11:32.227Z,12.07
2022-11-14T11:14:21.189Z,11.10
2022-11-14T11:17:33.294Z,11.37
2022-11-14T11:20:28.616Z,13.13
2022-11-14T11:23:23.336Z,11.77
2022-11-14T11:26:18.710Z,12.20
2022-11-14T11:29:10.048Z,13.53
2022-11-14T11:32:00.227Z,11.63
2022-11-14T11:34:53.060Z,11.97
2022-11-14T11:37:43.694Z,12.77
2022-11-14T11:40:31.213Z,13.43
2022-11-14T11:43:52.505Z,13.93
2022-11-14T11:46:39.150Z,15.83
2022-11-14T11:49:36.077Z,17.67
2022-11-14T11:52:33.955Z,18.73
2022-11-14T11:55:26.051Z,16.17
2022-11-14T11:58:21.234Z,14.80
2022-11-14T12:01:10.660Z,14.80
2022-11-14T12:03:58.541Z,14.60
2022-11-14T12:06:51.016Z,15.03
2022-11-14T12:10:09.394Z,16.00
2022-11-14T12:13:21.368Z,11.67
2022-11-14T12:16:33.335Z,13.07
2022-11-14T12:19:53.991Z,14.70
2022-11-14T12:22:57.402Z,11.10
2022-11-14T12:26:11.559Z,9.73
2022-11-14T12:29:24.032Z,11.13
2022-11-14T12:32:40.873Z,11.10
2022-11-14T12:35:31.647Z,15.40
2022-11-14T12:38:19.639Z,15.63
2022-11-14T12:41:33.994Z,15.27
2022-11-14T12:44:35.253Z,12.40
2022-11-14T12:47:23.747Z,19.77
2022-11-14T12:50:44.375Z,15.90
2022-11-14T12:53:47.101Z,16.33
2022-11-14T12:56:54.464Z,16.50
2022-11-14T12:59:51.142Z,19.73
2022-11-14T13:03:14.313Z,24.60
2022-11-14T13:06:08.396Z,25.07
2022-11-14T13:09:19.336Z,25.23
2022-11-14T13:12:47.033Z,24.33
2022-11-14T13:15:55.925Z,24.63
2022-11-14T13:19:17.137Z,24.00
2022-11-14T13:22:36.167Z,23.40
2022-11-14T13:25:24.820Z,26.67
2022-11-14T13:28:50.145Z,29.50
2022-11-14T13:31:50.405Z,30.50
2022-11-14T13:34:46.542Z,36.33
2022-11-14T13:37:50.003Z,38.87
2022-11-14T13:40:43.623Z,36.67
2022-11-14T13:43:45.286Z,37.13
2022-11-14T13:47:01.429Z,33.90
2022-11-14T13:50:09.264Z,30.70
2022-11-14T13:52:56.719Z,30.40
2022-11-14T13:55:58.225Z,29.43
2022-11-14T13:59:22.423Z,30.17
2022-11-14T14:02:28.325Z,29.13
2022-11-14T14:05:27.103Z,29.40
2022-11-14T14:08:34.140Z,27.90
2022-11-14T14:11:43.170Z,26.90
2022-11-14T14:14:50.225Z,32.70
2022-11-14T14:17:51.175Z,31.27
2022-11-14T14:20:45.733Z,30.20
2022-11-14T14:23:44.241Z,30.83
2022-11-14T14:26:38.175Z,30.17
2022-11-14T14:29:32.404Z,30.50
2022-11-14T14:32:21.139Z,32.03
2022-11-14T14:35:27.366Z,32.90
2022-11-14T14:38:22.901Z,31.90
2022-11-14T14:41:12.047Z,35.27
2022-11-14T14:43:59.217Z,31.83
2022-11-14T14:46:46.028Z,35.37
2022-11-14T14:49:37.873Z,35.60
2022-11-14T14:52:31.721Z,34.63
2022-11-14T14:55:26.435Z,35.17
2022-11-14T14:58:24.852Z,34.90
2022-11-14T15:01:14.522Z,37.30
2022-11-14T15:04:07.444Z,36.73
2022-11-14T15:06:58.091Z,31.63
2022-11-14T15:09:54.621Z,28.00
2022-11-14T15:12:43.244Z,29.57
2022-11-14T15:15:30.544Z,29.00
2022-11-14T15:18:23.696Z,22.93
2022-11-14T15:21:15.546Z,22.83
2022-11-14T15:24:13.699Z,18.90
2022-11-14T15:27:05.642Z,19.37
2022-11-14T15:29:55.555Z,19.33
2022-11-14T15:32:51.961Z,18.57
2022-11-14T15:35:46.351Z,17.87
2022-11-14T15:38:48.705Z,20.20
2022-11-14T15:41:38.501Z,18.40
2022-11-14T15:44:35.676Z,17.90
2022-11-14T15:47:25.778Z,18.63
2022-11-14T15:50:28.558Z,23.60
2022-11-14T15:53:23.926Z,20.87
2022-11-14T15:56:12.797Z,21.20
2022-11-14T15:58:59.583Z,22.23
2022-11-14T16:01:50.194Z,18.47
2022-11-14T16:04:41.727Z,18.73
2022-11-14T16:07:31.181Z,19.13
2022-11-14T16:10:20.178Z,19.57
2022-11-14T16:13:10.326Z,19.00
2022-11-14T16:15:56.838Z,19.27
2022-11-14T16:18:44.763Z,18.13
2022-11-14T16:21:31.263Z,33.23
2022-11-14T16:24:19.744Z,16.10
2022-11-14T16:27:06.356Z,18.97
2022-11-14T16:29:53.082Z,18.60
2022-11-14T16:32:39.678Z,17.43
2022-11-14T16:35:28.697Z,17.93
2022-11-14T16:38:15.523Z,15.83
2022-11-14T16:41:03.514Z,14.23
2022-11-14T16:43:49.976Z,13.93
2022-11-14T16:46:40.817Z,14.83
2022-11-14T16:49:28.298Z,12.40
2022-11-14T16:52:17.167Z,15.73
2022-11-14T16:55:03.926Z,13.83
2022-11-14T16:57:54.382Z,13.70
2022-11-14T17:00:47.354Z,14.43
2022-11-14T17:03:36.150Z,15.10
2022-11-14T17:06:22.584Z,16.53
2022-11-14T17:09:14.492Z,14.53
2022-11-14T17:12:00.832Z,13.07
2022-11-14T17:14:48.129Z,16.33
2022-11-14T17:17:38.245Z,15.23
2022-11-14T17:20:28.748Z,14.37
2022-11-14T17:23:15.148Z,13.13
2022-11-14T17:26:07.559Z,14.23
2022-11-14T17:28:54.623Z,10.53
2022-11-14T17:31:46.671Z,12.17
2022-11-14T17:34:36.030Z,11.87
2022-11-14T17:40:33.313Z,10.63
2022-11-14T17:43:24.110Z,10.67
2022-11-14T17:46:18.688Z,11.50
2022-11-14T17:49:06.216Z,14.97
2022-11-14T17:51:56.118Z,11.90
2022-11-14T17:54:42.513Z,11.53
2022-11-14T17:57:29.222Z,13.00
2022-11-14T18:00:19.790Z,14.70
2022-11-14T18:03:11.781Z,13.83
2022-11-14T18:06:07.803Z,14.67
2022-11-14T18:08:55.309Z,15.47
2022-11-14T18:11:44.196Z,14.07
2022-11-14T18:14:30.711Z,13.67
2022-11-14T18:17:18.649Z,13.43
2022-11-14T18:20:05.915Z,13.63
2022-11-14T18:22:58.466Z,14.80
2022-11-14T18:25:45.041Z,12.97
2022-11-14T18:28:31.458Z,13.97
2022-11-14T18:31:18.209Z,15.20
2022-11-14T18:34:06.062Z,14.73
2022-11-14T18:36:52.335Z,13.10
2022-11-14T18:39:40.439Z,13.33
2022-11-14T18:42:26.869Z,13.30
2022-11-14T18:45:13.197Z,14.30
2022-11-14T18:48:00.029Z,14.20
2022-11-14T18:50:52.429Z,15.57
2022-11-14T18:53:42.684Z,13.63
2022-11-14T18:56:32.663Z,13.27
2022-11-14T18:59:19.642Z,13.97
2022-11-14T19:02:06.333Z,13.83
2022-11-14T19:04:52.868Z,16.10
2022-11-14T19:07:40.624Z,13.77
2022-11-14T19:10:30.872Z,14.13
2022-11-14T19:13:21.041Z,14.80
2022-11-14T19:16:08.581Z,14.40
2022-11-14T19:18:56.147Z,14.20
2022-11-14T19:21:43.012Z,15.83
2022-11-14T19:24:31.006Z,15.97
2022-11-14T19:27:17.519Z,14.07
2022-11-14T19:30:04.735Z,13.93
2022-11-14T19:32:51.006Z,16.77
2022-11-14T19:35:39.612Z,14.23
2022-11-14T19:38:27.624Z,14.47
2022-11-14T19:41:17.723Z,17.07
2022-11-14T19:44:08.287Z,15.60
2022-11-14T19:46:54.651Z,17.93
2022-11-14T19:49:41.113Z,16.00
2022-11-14T19:52:31.054Z,18.60
2022-11-14T19:55:18.939Z,15.73
2022-11-14T19:58:06.645Z,17.57
2022-11-14T20:00:52.959Z,16.50
2022-11-14T20:03:39.900Z,19.40
2022-11-14T20:06:27.976Z,17.37
2022-11-14T20:09:16.556Z,18.07
2022-11-14T20:12:03.494Z,16.80
2022-11-14T20:14:51.485Z,16.80
2022-11-14T20:17:37.780Z,19.07
2022-11-14T20:20:24.176Z,17.77
2022-11-14T20:23:11.522Z,19.00
2022-11-14T20:25:58.294Z,16.87
2022-11-14T20:28:47.289Z,20.70
2022-11-14T20:31:35.102Z,18.90
2022-11-14T20:34:22.279Z,18.57
2022-11-14T20:37:11.738Z,20.07
2022-11-14T20:40:03.622Z,19.03
2022-11-14T20:42:50.597Z,19.83
2022-11-14T20:45:37.496Z,18.80
2022-11-14T20:48:25.531Z,23.57
2022-11-14T20:51:14.486Z,19.30
2022-11-14T20:54:00.948Z,20.63
2022-11-14T20:56:47.872Z,21.00
2022-11-14T20:59:34.254Z,20.03
2022-11-14T21:02:21.473Z,20.80
2022-11-14T21:05:11.552Z,21.23
2022-11-14T21:08:03.193Z,24.27
2022-11-14T21:10:51.480Z,22.23
2022-11-14T21:13:58.918Z,21.20
2022-11-14T21:16:46.201Z,21.30
2022-11-14T21:19:39.440Z,22.17
2022-11-14T21:22:27.302Z,22.70
2022-11-14T21:25:13.645Z,26.23
2022-11-14T21:27:59.921Z,22.43
2022-11-14T21:30:50.443Z,21.50
2022-11-14T21:33:36.818Z,24.47
2022-11-14T21:39:35.968Z,23.53
2022-11-14T21:42:23.190Z,23.73
2022-11-14T21:45:10.862Z,21.47
2022-11-14T21:47:57.489Z,23.07
2022-11-14T21:50:44.878Z,23.07
2022-11-14T21:53:32.402Z,22.43
2022-11-14T21:56:22.904Z,23.47
2022-11-14T21:59:16.371Z,21.70
2022-11-14T22:02:21.420Z,25.30
2022-11-14T22:05:08.587Z,38.90
2022-11-14T22:07:55.057Z,22.33
2022-11-14T22:10:43.315Z,24.83
2022-11-14T22:13:34.516Z,21.83
2022-11-14T22:16:21.389Z,25.93
2022-11-14T22:19:12.242Z,21.80
2022-11-14T22:21:59.718Z,23.73
2022-11-14T22:24:46.191Z,23.63
2022-11-14T22:27:32.937Z,24.70
2022-11-14T22:30:20.760Z,22.67
2022-11-14T22:33:07.955Z,22.73
2022-11-14T22:35:57.446Z,23.87
2022-11-14T22:38:45.035Z,22.43
2022-11-14T22:41:33.966Z,22.90
2022-11-14T22:44:20.588Z,21.20
2022-11-14T22:47:08.222Z,24.57
2022-11-14T22:49:55.307Z,24.47
2022-11-14T22:52:46.445Z,22.80
2022-11-14T22:55:33.020Z,24.00
2022-11-14T22:58:20.245Z,23.63
2022-11-14T23:01:13.332Z,23.67
2022-11-14T23:04:03.495Z,20.37
2022-11-14T23:06:51.156Z,21.60
2022-11-14T23:09:39.651Z,19.60
2022-11-14T23:12:26.031Z,19.17
2022-11-14T23:15:13.243Z,19.33
2022-11-14T23:18:00.431Z,19.20
2022-11-14T23:20:49.399Z,19.97
2022-11-14T23:23:36.334Z,19.47
2022-11-14T23:26:23.096Z,17.40
2022-11-14T23:29:13.934Z,18.47
2022-11-14T23:32:01.259Z,17.70
2022-11-14T23:34:47.558Z,18.40
2022-11-14T23:37:39.585Z,16.53
2022-11-14T23:40:27.584Z,17.37
2022-11-14T23:43:14.382Z,17.43
2022-11-14T23:46:01.322Z,18.17
2022-11-14T23:48:47.857Z,15.27
2022-11-14T23:51:35.277Z,17.60
2022-11-14T23:54:23.752Z,16.20
2022-11-14T23:57:11.019Z,17.00
2022-11-14T23:59:57.761Z,16.90
